Create Tblcommutelog Verified Points Advance Search
| # | Trip ID | Id Commuter | Trip Date | Trip Num | Current Lat | Current Lng | Delta Distance | Current Time | Activity | Activity Confidence | Current Speed | |
|---|---|---|---|---|---|---|---|---|---|---|---|---|
| 72841 | 251009_775288_16502411_0731 | 775288 | (not set) | (not set) | 38.960902 | -77.4171264 | 25.8834 | 2025-10-09 08:16:51 | in_vehicle | 100 | 14.028091947035 | |
| 72842 | 251009_786823_16483549_0754 | 786823 | (not set) | (not set) | 39.243909919221 | -76.665447029783 | 32.7862 | 2025-10-09 08:57:42 | unknown | 100 | 9.2715942314054 | |
| 72843 | 251009_775288_16502411_0731 | 775288 | (not set) | (not set) | 38.9597038 | -77.4133478 | 26.1031 | 2025-10-09 08:17:03 | in_vehicle | 100 | 13.965506450777 | |
| 72844 | 251009_775288_16502411_0731 | 775288 | (not set) | (not set) | 38.9571479 | -77.4061757 | 26.5277 | 2025-10-09 08:17:26 | in_vehicle | 100 | 13.82692428049 | |
| 72845 | 251009_775288_16502411_0731 | 775288 | (not set) | (not set) | 38.958354 | -77.4094723 | 26.3316 | 2025-10-09 08:17:15 | in_vehicle | 100 | 11.631961518861 | |
| 72846 | 251009_775288_16502411_0731 | 775288 | (not set) | (not set) | 38.9557438 | -77.4022344 | 26.761 | 2025-10-09 08:17:38 | in_vehicle | 100 | 14.063855087754 | |
| 72847 | 251009_775288_16502411_0731 | 775288 | (not set) | (not set) | 38.9545967 | -77.3983548 | 26.9845 | 2025-10-09 08:17:51 | in_vehicle | 100 | 10.599300830599 | |
| 72848 | 251009_775288_16502411_0731 | 775288 | (not set) | (not set) | 38.9539194 | -77.3948343 | 27.1798 | 2025-10-09 08:18:06 | in_vehicle | 100 | 8.6591504465922 | |
| 72849 | 251009_775288_16502411_0731 | 775288 | (not set) | (not set) | 38.9534678 | -77.391947 | 27.3383 | 2025-10-09 08:18:17 | in_vehicle | 100 | 11.032928911817 | |
| 72850 | 251009_775288_16502411_0731 | 775288 | (not set) | (not set) | 38.9529105 | -77.3884129 | 27.5326 | 2025-10-09 08:18:29 | in_vehicle | 100 | 11.332445215339 | |
| 72851 | 251009_775288_16502411_0731 | 775288 | (not set) | (not set) | 38.9524692 | -77.3848905 | 27.7247 | 2025-10-09 08:18:41 | in_vehicle | 100 | 11.27433011167 | |
| 72852 | 251009_775288_16502411_0731 | 775288 | (not set) | (not set) | 38.9524067 | -77.3813208 | 27.917 | 2025-10-09 08:18:53 | in_vehicle | 100 | 11.386089926417 | |
| 72853 | 251009_775288_16502411_0731 | 775288 | (not set) | (not set) | 38.95256 | -77.3777863 | 28.1077 | 2025-10-09 08:19:04 | in_vehicle | 100 | 12.990960866183 | |
| 72854 | 251009_775288_16502411_0731 | 775288 | (not set) | (not set) | 38.9528554 | -77.3735117 | 28.3389 | 2025-10-09 08:19:18 | in_vehicle | 100 | 12.02088567418 | |
| 72855 | 251009_775288_16502411_0731 | 775288 | (not set) | (not set) | 38.9529493 | -77.3698347 | 28.537 | 2025-10-09 08:19:30 | in_vehicle | 100 | 12.266757266623 | |
| 72856 | 251009_775288_16502411_0731 | 775288 | (not set) | (not set) | 38.9525972 | -77.3624333 | 28.9368 | 2025-10-09 08:19:55 | in_vehicle | 100 | 11.846540363175 | |
| 72857 | 251009_775288_16502411_0731 | 775288 | (not set) | (not set) | 38.9528892 | -77.3661674 | 28.7346 | 2025-10-09 08:19:42 | in_vehicle | 100 | 11.359267570878 | |
| 72858 | 251009_775288_16502411_0731 | 775288 | (not set) | (not set) | 38.9518387 | -77.3589942 | 29.1292 | 2025-10-09 08:20:07 | in_vehicle | 100 | 10.492011408442 | |
| 72859 | 251009_775288_16502411_0731 | 775288 | (not set) | (not set) | 38.9531819 | -77.3559229 | 29.3188 | 2025-10-09 08:22:01 | in_vehicle | 100 | 7.8723613507738 | |
| 72860 | 251009_775288_16502411_0731 | 775288 | (not set) | (not set) | 38.9550162 | -77.3542382 | 29.4745 | 2025-10-09 08:22:21 | in_vehicle | 100 | 7.6577825064597 |